Time;durP1;ratioP1;P1;durP2;ratioP2;P2;SDS_P1;SDS_P2;PMS_P1;PMS_P2;Temp;Humidity;BMP_temperature;BMP_pressure;BME280_temperature;BME280_humidity;BME280_pressure;Samples;Min_cycle;Max_cycle;Signal;HPM_P1;HPM_P2
2022/06/30 00:00:08;;;;;;;20.95;13.20;;;27.50;79.80;;;;;;6156155;28;82908;-65
2022/06/30 00:03:09;;;;;;;19.90;13.88;;;27.50;79.70;;;;;;6156294;28;82942;-65
2022/06/30 00:06:09;;;;;;;20.27;14.13;;;27.50;78.20;;;;;;6156021;28;83338;-65
2022/06/30 00:09:10;;;;;;;17.13;13.93;;;27.50;78.90;;;;;;6156015;28;83246;-65
2022/06/30 00:12:10;;;;;;;19.80;12.25;;;27.50;79.00;;;;;;6156677;28;83342;-65
2022/06/30 00:15:11;;;;;;;24.85;13.70;;;27.50;77.60;;;;;;6156334;28;82958;-65
2022/06/30 00:18:11;;;;;;;21.77;13.52;;;27.40;77.10;;;;;;6156285;28;83394;-65
2022/06/30 00:21:12;;;;;;;17.35;13.05;;;27.30;78.00;;;;;;6156293;28;83679;-65
2022/06/30 00:24:12;;;;;;;24.58;13.00;;;27.40;77.90;;;;;;6149876;28;83134;-65
2022/06/30 00:27:13;;;;;;;21.25;13.73;;;27.40;77.40;;;;;;6153951;28;83536;-65
2022/06/30 00:30:13;;;;;;;20.63;12.63;;;27.40;77.60;;;;;;6155876;28;83474;-64
2022/06/30 00:33:14;;;;;;;17.00;12.38;;;27.40;76.90;;;;;;6155822;28;83333;-64
2022/06/30 00:36:14;;;;;;;18.42;13.13;;;27.50;77.10;;;;;;6155781;28;83226;-64
2022/06/30 00:39:15;;;;;;;22.73;11.95;;;27.50;77.00;;;;;;6155216;28;83910;-64
2022/06/30 00:42:15;;;;;;;17.15;12.63;;;27.50;76.40;;;;;;6156434;28;83009;-64
2022/06/30 00:45:16;;;;;;;16.65;11.45;;;27.50;76.60;;;;;;6154784;28;83446;-64
2022/06/30 00:48:16;;;;;;;21.20;12.00;;;27.50;76.70;;;;;;6156262;28;82982;-64
2022/06/30 00:51:17;;;;;;;17.73;11.65;;;27.50;77.10;;;;;;6154420;28;83163;-64
2022/06/30 00:54:17;;;;;;;13.95;11.50;;;27.50;76.20;;;;;;6156071;28;83549;-65
2022/06/30 00:57:18;;;;;;;18.05;12.85;;;27.50;76.00;;;;;;6155145;28;83377;-64
2022/06/30 01:00:18;;;;;;;15.52;11.57;;;27.50;75.40;;;;;;6156108;28;82990;-64
2022/06/30 01:03:18;;;;;;;17.98;11.63;;;27.50;76.10;;;;;;6155609;28;82819;-64
2022/06/30 01:06:19;;;;;;;16.95;12.77;;;27.50;75.30;;;;;;6149547;28;83082;-64
2022/06/30 01:12:42;;;;;;;21.90;11.35;;;27.50;75.80;;;;;;6153339;28;83448;-63
2022/06/30 01:15:42;;;;;;;16.13;12.10;;;27.50;75.90;;;;;;6155793;28;83801;-64
2022/06/30 01:18:42;;;;;;;15.60;11.38;;;27.50;76.30;;;;;;6148338;28;83421;-64
2022/06/30 01:21:43;;;;;;;18.00;12.68;;;27.50;76.00;;;;;;6153405;28;83226;-64
2022/06/30 01:24:43;;;;;;;15.82;11.80;;;27.60;76.30;;;;;;6149185;28;83278;-64
2022/06/30 01:27:44;;;;;;;15.15;11.30;;;27.60;75.50;;;;;;6155111;28;83057;-65
2022/06/30 01:30:44;;;;;;;17.20;11.70;;;27.50;75.70;;;;;;6155443;28;82782;-65
2022/06/30 01:33:45;;;;;;;17.23;11.50;;;27.50;75.70;;;;;;6155583;28;83487;-65
2022/06/30 01:36:45;;;;;;;15.13;10.70;;;27.50;75.90;;;;;;6154789;28;83280;-65
2022/06/30 01:39:46;;;;;;;17.00;10.75;;;27.50;75.60;;;;;;6150883;28;83124;-66
2022/06/30 01:42:46;;;;;;;15.77;11.10;;;27.50;75.80;;;;;;6151514;28;85824;-65
2022/06/30 01:45:47;;;;;;;20.52;12.02;;;27.50;76.00;;;;;;6143587;28;83675;-64
2022/06/30 01:48:47;;;;;;;18.25;12.02;;;27.50;76.10;;;;;;6144061;28;83167;-63
2022/06/30 01:51:48;;;;;;;14.75;11.48;;;27.50;76.30;;;;;;6144063;28;83259;-62
2022/06/30 01:54:48;;;;;;;12.40;11.02;;;27.50;75.40;;;;;;6153813;28;83142;-62
2022/06/30 01:57:49;;;;;;;17.95;12.32;;;27.50;74.90;;;;;;6154822;28;83002;-63
2022/06/30 02:00:49;;;;;;;18.85;12.40;;;27.50;75.50;;;;;;6144632;28;83583;-63
2022/06/30 02:03:50;;;;;;;16.00;12.15;;;27.50;76.00;;;;;;6154532;28;83152;-64
2022/06/30 02:06:51;;;;;;;18.40;11.18;;;27.50;75.70;;;;;;6150414;28;82914;-63
2022/06/30 02:09:52;;;;;;;19.52;12.10;;;27.50;75.60;;;;;;6149344;28;82873;-64
2022/06/30 02:12:52;;;;;;;16.45;12.35;;;27.50;75.40;;;;;;6154630;28;83160;-64
2022/06/30 02:15:53;;;;;;;17.98;12.35;;;27.50;75.20;;;;;;6154685;28;82785;-63
2022/06/30 02:18:53;;;;;;;17.40;11.05;;;27.50;75.50;;;;;;6153731;28;82934;-63
2022/06/30 02:21:54;;;;;;;20.77;12.65;;;27.50;75.40;;;;;;6153204;28;83451;-63
2022/06/30 02:24:54;;;;;;;20.13;12.75;;;27.50;75.10;;;;;;6144953;28;83396;-64
2022/06/30 02:27:55;;;;;;;15.98;12.65;;;27.50;75.70;;;;;;6153596;28;83190;-63
2022/06/30 02:30:55;;;;;;;21.95;12.95;;;27.50;75.30;;;;;;6150744;28;83154;-64
2022/06/30 02:33:56;;;;;;;17.02;12.02;;;27.50;75.50;;;;;;6156455;28;82971;-64
2022/06/30 02:36:56;;;;;;;16.30;11.70;;;27.40;75.80;;;;;;6157765;28;83156;-63
2022/06/30 02:39:57;;;;;;;17.10;12.70;;;27.40;75.70;;;;;;6158140;28;83432;-63
2022/06/30 02:42:57;;;;;;;19.45;12.32;;;27.50;75.80;;;;;;6158154;28;83381;-63
2022/06/30 02:45:58;;;;;;;20.70;14.32;;;27.40;75.40;;;;;;6158303;28;84489;-64
2022/06/30 02:48:58;;;;;;;17.95;13.43;;;27.40;75.80;;;;;;6158248;28;83046;-63
2022/06/30 02:51:59;;;;;;;17.60;13.02;;;27.40;75.90;;;;;;6157255;28;83016;-63
2022/06/30 02:54:59;;;;;;;28.30;13.77;;;27.40;76.00;;;;;;6153348;28;83180;-64
2022/06/30 02:58:00;;;;;;;16.23;12.43;;;27.30;76.00;;;;;;6139189;28;83552;-64
2022/06/30 03:01:00;;;;;;;17.98;13.15;;;27.30;76.20;;;;;;6153108;28;83743;-64
2022/06/30 03:04:04;;;;;;;18.73;13.80;;;27.30;76.40;;;;;;6157282;28;83583;-64
2022/06/30 03:07:04;;;;;;;24.33;12.52;;;27.20;76.50;;;;;;6157339;28;84267;-64
2022/06/30 03:10:05;;;;;;;18.45;12.77;;;27.30;76.00;;;;;;6157492;28;83423;-63
2022/06/30 03:13:05;;;;;;;18.38;11.70;;;27.30;75.90;;;;;;6157874;28;83059;-63
2022/06/30 03:16:06;;;;;;;18.52;12.77;;;27.30;76.10;;;;;;6157102;28;83388;-63
2022/06/30 03:19:06;;;;;;;18.20;13.30;;;27.30;76.00;;;;;;6157279;28;83841;-63
2022/06/30 03:22:07;;;;;;;20.00;13.07;;;27.30;75.60;;;;;;6157491;28;83010;-63
2022/06/30 03:25:07;;;;;;;17.23;12.82;;;27.30;75.60;;;;;;6157809;28;83161;-64
2022/06/30 03:28:08;;;;;;;16.58;12.63;;;27.30;75.70;;;;;;6155544;28;83339;-63
2022/06/30 03:31:08;;;;;;;16.25;12.73;;;27.30;75.80;;;;;;6143718;28;82996;-65
2022/06/30 03:34:09;;;;;;;17.65;12.93;;;27.40;75.60;;;;;;6150269;28;86179;-65
2022/06/30 03:37:09;;;;;;;18.48;12.32;;;27.40;75.40;;;;;;6151872;28;83272;-64
2022/06/30 03:40:10;;;;;;;20.85;12.00;;;27.40;75.40;;;;;;6151027;28;83224;-64
2022/06/30 03:43:10;;;;;;;17.40;12.35;;;27.40;75.30;;;;;;6147318;28;83183;-64
2022/06/30 03:46:11;;;;;;;18.42;12.38;;;27.50;75.20;;;;;;6145401;28;82997;-66
2022/06/30 03:49:11;;;;;;;17.65;12.25;;;27.50;75.20;;;;;;6146543;28;83047;-64
2022/06/30 03:52:11;;;;;;;17.52;13.40;;;27.50;75.20;;;;;;6143980;28;83350;-63
2022/06/30 03:55:12;;;;;;;16.58;13.07;;;27.50;75.30;;;;;;6148019;28;83163;-63
2022/06/30 03:58:12;;;;;;;19.30;13.48;;;27.40;74.90;;;;;;6149116;28;83666;-63
2022/06/30 04:01:13;;;;;;;18.73;13.07;;;27.50;75.00;;;;;;6146273;28;84422;-63
2022/06/30 04:04:13;;;;;;;16.88;11.82;;;27.50;76.00;;;;;;6151586;28;82844;-65
2022/06/30 04:07:14;;;;;;;19.25;13.55;;;27.50;75.90;;;;;;6153322;28;82994;-64
2022/06/30 04:10:14;;;;;;;22.25;13.90;;;27.50;74.30;;;;;;6144984;28;84342;-63
2022/06/30 04:13:15;;;;;;;20.15;13.55;;;27.50;75.80;;;;;;6148876;28;83132;-64
2022/06/30 04:16:15;;;;;;;20.73;13.18;;;27.60;75.30;;;;;;6156580;28;83382;-63
2022/06/30 04:19:16;;;;;;;19.13;12.57;;;27.60;75.00;;;;;;6152032;28;83322;-65
2022/06/30 04:22:16;;;;;;;17.92;13.18;;;27.60;74.70;;;;;;6155676;28;83115;-64
2022/06/30 04:25:17;;;;;;;17.20;13.20;;;27.60;74.40;;;;;;6147397;28;83895;-64
2022/06/30 04:28:17;;;;;;;18.30;14.15;;;27.60;74.00;;;;;;6150492;28;83126;-65
2022/06/30 04:34:37;;;;;;;16.40;12.43;;;27.60;75.00;;;;;;6156166;28;84032;-67
2022/06/30 04:37:38;;;;;;;20.30;12.85;;;27.70;74.50;;;;;;6156235;28;83303;-65
2022/06/30 04:43:57;;;;;;;21.52;15.02;;;27.70;74.20;;;;;;6147487;28;83498;-65
2022/06/30 04:46:58;;;;;;;21.80;14.52;;;27.70;74.40;;;;;;6156361;28;83075;-67
2022/06/30 04:49:58;;;;;;;22.52;16.02;;;27.70;74.70;;;;;;6154709;28;82826;-69
2022/06/30 04:52:59;;;;;;;21.40;14.98;;;27.70;75.50;;;;;;6148210;28;83398;-67
2022/06/30 04:55:59;;;;;;;21.90;15.38;;;27.70;75.60;;;;;;6152497;28;83327;-67
2022/06/30 04:59:00;;;;;;;23.85;15.27;;;27.70;75.00;;;;;;6155586;28;83464;-62
2022/06/30 05:02:00;;;;;;;23.25;15.50;;;27.70;75.60;;;;;;6146657;28;82758;-69
2022/06/30 05:05:01;;;;;;;20.15;15.20;;;27.80;75.40;;;;;;6145030;28;83144;-64
2022/06/30 05:08:01;;;;;;;19.35;14.57;;;27.80;75.80;;;;;;6147795;28;83110;-64
2022/06/30 05:11:02;;;;;;;24.38;16.20;;;27.70;74.90;;;;;;6147759;28;83027;-65
2022/06/30 05:14:03;;;;;;;24.08;15.63;;;27.70;75.80;;;;;;6154246;28;83251;-64
2022/06/30 05:17:04;;;;;;;21.98;15.70;;;27.70;75.70;;;;;;6154739;28;83604;-64
2022/06/30 05:20:05;;;;;;;24.00;15.38;;;27.70;75.70;;;;;;6154846;28;83350;-64
2022/06/30 05:23:05;;;;;;;19.40;14.15;;;27.70;76.20;;;;;;6154260;28;83320;-64
2022/06/30 05:29:25;;;;;;;22.20;14.88;;;27.60;76.10;;;;;;6132958;28;83207;-64
2022/06/30 05:32:25;;;;;;;21.55;13.98;;;27.70;75.90;;;;;;6132472;28;83312;-65
2022/06/30 05:35:25;;;;;;;19.40;14.77;;;27.70;75.80;;;;;;6132697;28;84127;-66
2022/06/30 05:38:26;;;;;;;21.10;13.55;;;27.70;76.10;;;;;;6136898;28;84302;-72
2022/06/30 05:41:26;;;;;;;22.83;16.25;;;27.70;76.10;;;;;;6153145;28;83622;-64
2022/06/30 05:44:27;;;;;;;23.20;16.13;;;27.60;76.40;;;;;;6149991;28;82952;-67
2022/06/30 05:47:28;;;;;;;24.25;16.88;;;27.60;76.70;;;;;;6143274;28;83900;-72
2022/06/30 05:50:28;;;;;;;20.20;14.68;;;27.40;78.00;;;;;;6149012;28;84304;-65
2022/06/30 05:53:29;;;;;;;23.73;16.00;;;27.50;78.50;;;;;;6154072;28;83190;-65
2022/06/30 05:56:29;;;;;;;20.55;14.55;;;27.60;77.70;;;;;;6152076;28;83482;-65
2022/06/30 05:59:32;;;;;;;27.02;14.50;;;27.50;77.40;;;;;;6154671;28;83130;-65
2022/06/30 06:02:32;;;;;;;21.80;14.65;;;27.50;78.30;;;;;;6151599;28;82869;-65
2022/06/30 06:05:33;;;;;;;21.73;13.82;;;27.60;77.90;;;;;;6159069;28;83400;-65
2022/06/30 06:08:33;;;;;;;18.80;13.75;;;27.50;77.50;;;;;;6158893;28;82971;-64
2022/06/30 06:11:34;;;;;;;21.00;13.32;;;27.50;78.30;;;;;;6158928;28;84206;-65
2022/06/30 06:14:34;;;;;;;20.60;13.82;;;27.60;78.20;;;;;;6157477;28;83493;-65
2022/06/30 06:17:34;;;;;;;16.95;12.52;;;27.60;77.30;;;;;;6156703;28;84854;-65
2022/06/30 06:20:35;;;;;;;25.40;13.63;;;27.70;76.90;;;;;;6158461;28;83477;-65
2022/06/30 06:23:35;;;;;;;19.33;11.85;;;27.60;77.00;;;;;;6158518;28;83421;-65
2022/06/30 06:26:36;;;;;;;14.88;9.77;;;27.60;76.30;;;;;;6159025;28;84324;-64
2022/06/30 06:29:36;;;;;;;16.23;10.95;;;27.50;76.90;;;;;;6161910;28;82844;-65
2022/06/30 06:33:02;;;;;;;15.40;11.93;;;27.60;77.70;;;;;;6158464;28;85026;-65
2022/06/30 06:36:02;;;;;;;14.23;9.98;;;27.70;76.40;;;;;;6159062;28;84349;-65
2022/06/30 06:39:03;;;;;;;16.10;10.75;;;27.70;76.70;;;;;;6159060;28;82837;-65
2022/06/30 06:42:04;;;;;;;14.55;10.02;;;27.80;76.40;;;;;;6158761;28;83214;-65
2022/06/30 06:45:08;;;;;;;15.73;11.10;;;27.80;74.90;;;;;;6156536;28;83801;-64
2022/06/30 06:48:08;;;;;;;12.95;10.07;;;27.80;74.80;;;;;;6158392;28;83093;-64
2022/06/30 06:51:09;;;;;;;18.70;10.82;;;27.90;74.50;;;;;;6158314;28;83153;-64
2022/06/30 06:54:09;;;;;;;13.65;10.30;;;27.90;74.70;;;;;;6158631;28;83031;-64
2022/06/30 06:57:10;;;;;;;14.43;9.48;;;27.90;75.10;;;;;;6157395;28;83407;-64
2022/06/30 07:00:12;;;;;;;13.23;9.77;;;27.90;74.10;;;;;;6160213;28;84682;-62
2022/06/30 07:03:13;;;;;;;13.63;9.63;;;27.80;76.10;;;;;;6159713;28;80440;-64
2022/06/30 07:06:14;;;;;;;15.00;9.63;;;27.60;71.40;;;;;;6163715;28;80845;-64
2022/06/30 07:09:14;;;;;;;22.00;10.40;;;27.20;68.50;;;;;;6164737;28;80725;-64
2022/06/30 07:12:15;;;;;;;13.75;9.25;;;26.70;68.00;;;;;;6159207;28;83116;-64
2022/06/30 07:15:15;;;;;;;18.10;7.82;;;26.30;67.40;;;;;;6168179;28;83195;-65
2022/06/30 07:18:16;;;;;;;16.77;8.45;;;26.10;67.70;;;;;;6161777;28;81120;-64
2022/06/30 07:21:17;;;;;;;17.23;9.23;;;25.90;66.60;;;;;;6163721;28;80782;-64
2022/06/30 07:24:17;;;;;;;12.88;9.25;;;25.70;66.40;;;;;;6154494;28;80662;-64
2022/06/30 07:27:18;;;;;;;14.32;8.48;;;25.70;66.10;;;;;;6161653;28;81573;-64
2022/06/30 07:30:18;;;;;;;16.38;9.45;;;25.60;65.70;;;;;;6159581;28;81956;-68
2022/06/30 07:33:19;;;;;;;13.48;9.65;;;25.60;64.90;;;;;;6156539;28;81857;-69
2022/06/30 07:36:19;;;;;;;16.67;9.25;;;26.00;69.10;;;;;;6156488;28;81846;-64
2022/06/30 07:39:20;;;;;;;17.45;9.10;;;26.30;69.80;;;;;;6160424;28;80699;-63
2022/06/30 07:42:20;;;;;;;16.33;9.52;;;26.50;69.80;;;;;;6159429;28;80688;-64
2022/06/30 07:45:21;;;;;;;12.35;8.93;;;26.70;69.60;;;;;;6161031;28;80875;-63
2022/06/30 07:48:22;;;;;;;12.10;9.73;;;26.90;69.70;;;;;;6147741;28;80276;-63
2022/06/30 07:51:22;;;;;;;15.30;9.73;;;27.00;70.40;;;;;;6160922;28;80365;-64
2022/06/30 07:54:23;;;;;;;11.00;8.43;;;26.90;67.10;;;;;;6161119;28;86495;-64
2022/06/30 07:57:23;;;;;;;16.63;8.90;;;26.70;65.50;;;;;;6157970;28;80220;-64
2022/06/30 08:00:24;;;;;;;15.63;9.57;;;26.30;64.60;;;;;;6160637;28;80751;-64
2022/06/30 08:03:25;;;;;;;12.98;8.93;;;26.10;63.50;;;;;;6160836;28;80611;-65
2022/06/30 08:06:25;;;;;;;12.27;8.60;;;25.90;64.80;;;;;;6160703;28;80557;-64
2022/06/30 08:09:26;;;;;;;12.00;8.93;;;25.70;64.20;;;;;;6160719;28;80295;-64
2022/06/30 08:12:26;;;;;;;15.07;8.95;;;25.60;64.30;;;;;;6158655;28;80441;-64
2022/06/30 08:15:27;;;;;;;12.85;8.27;;;25.50;63.10;;;;;;6160498;28;80379;-70
2022/06/30 08:18:27;;;;;;;11.18;8.38;;;25.60;62.80;;;;;;6160429;28;81053;-65
2022/06/30 08:21:28;;;;;;;11.98;8.63;;;25.60;59.80;;;;;;6160494;28;81464;-69
2022/06/30 08:24:28;;;;;;;18.13;9.70;;;25.70;60.80;;;;;;6160609;28;80282;-69
2022/06/30 08:27:29;;;;;;;17.20;10.18;;;25.80;65.90;;;;;;6160726;28;80199;-70
2022/06/30 08:30:29;;;;;;;26.17;12.40;;;26.10;68.60;;;;;;6157454;28;83233;-68
2022/06/30 08:33:30;;;;;;;26.50;12.43;;;26.40;68.90;;;;;;6157660;28;83209;-67
2022/06/30 08:36:30;;;;;;;26.75;12.70;;;26.60;70.40;;;;;;6155857;28;83423;-70
2022/06/30 08:42:49;;;;;;;28.17;11.35;;;26.90;70.30;;;;;;6157782;28;83161;-74
2022/06/30 08:45:50;;;;;;;34.70;12.98;;;27.10;69.90;;;;;;6150575;28;83413;-72
2022/06/30 08:48:50;;;;;;;31.10;12.00;;;27.10;70.60;;;;;;6157485;28;83449;-66
2022/06/30 08:51:51;;;;;;;43.97;14.50;;;27.20;72.00;;;;;;6155969;28;82977;-66
2022/06/30 08:54:51;;;;;;;29.15;13.20;;;27.40;73.20;;;;;;6156243;28;82994;-66
2022/06/30 08:57:52;;;;;;;28.50;12.98;;;27.50;72.20;;;;;;6156257;28;82871;-67
2022/06/30 09:00:52;;;;;;;25.52;12.52;;;27.50;72.00;;;;;;6156476;28;83070;-67
2022/06/30 09:03:53;;;;;;;34.67;12.40;;;27.50;72.50;;;;;;6156590;28;83391;-68
2022/06/30 09:06:53;;;;;;;19.15;11.48;;;27.20;67.40;;;;;;6155810;28;82878;-71
2022/06/30 09:09:54;;;;;;;22.50;11.57;;;27.00;64.10;;;;;;6156899;28;84280;-76
2022/06/30 09:12:54;;;;;;;18.85;11.38;;;26.80;62.30;;;;;;6156734;28;83077;-68
2022/06/30 09:15:55;;;;;;;22.45;12.05;;;26.60;66.70;;;;;;6154416;28;82940;-72
2022/06/30 09:18:55;;;;;;;25.33;12.82;;;26.70;67.60;;;;;;6156156;28;83475;-66
2022/06/30 09:21:56;;;;;;;22.55;11.70;;;27.00;68.60;;;;;;6148672;28;84197;-66
2022/06/30 09:24:56;;;;;;;23.08;11.30;;;27.10;68.90;;;;;;6156376;28;83034;-66
2022/06/30 09:27:57;;;;;;;15.60;10.73;;;27.30;69.00;;;;;;6156048;28;83118;-66
2022/06/30 09:30:57;;;;;;;19.92;11.98;;;27.50;70.20;;;;;;6156219;28;83171;-67
2022/06/30 09:33:58;;;;;;;19.60;11.73;;;27.60;69.90;;;;;;6156133;28;83549;-66
2022/06/30 09:36:58;;;;;;;19.48;12.18;;;27.80;69.80;;;;;;6155744;28;82796;-67
2022/06/30 09:39:59;;;;;;;24.40;12.32;;;27.90;70.50;;;;;;6155618;28;83429;-65
2022/06/30 09:42:59;;;;;;;20.00;12.38;;;28.00;70.10;;;;;;6156257;28;83248;-68
2022/06/30 09:46:00;;;;;;;16.73;11.77;;;28.10;69.80;;;;;;6156108;28;84282;-67
2022/06/30 09:49:00;;;;;;;19.88;12.63;;;28.20;69.50;;;;;;6156415;28;83077;-67
2022/06/30 09:52:01;;;;;;;18.40;11.40;;;28.20;69.90;;;;;;6156099;28;83748;-67
2022/06/30 09:55:01;;;;;;;16.08;10.25;;;28.00;67.50;;;;;;6155828;28;83226;-67
2022/06/30 09:58:02;;;;;;;49.42;22.98;;;27.80;63.90;;;;;;6156079;28;82896;-66
2022/06/30 10:01:02;;;;;;;119.85;42.85;;;27.50;61.40;;;;;;6154086;28;83104;-65
2022/06/30 10:04:05;;;;;;;90.10;36.28;;;27.30;60.10;;;;;;6155494;28;83736;-66
2022/06/30 10:07:05;;;;;;;102.85;41.30;;;27.10;59.40;;;;;;6155556;28;83078;-65
2022/06/30 10:10:06;;;;;;;104.03;40.58;;;27.00;59.30;;;;;;6154116;28;82850;-65
2022/06/30 10:13:06;;;;;;;78.50;31.55;;;26.80;59.00;;;;;;6155562;28;83163;-66
2022/06/30 10:16:07;;;;;;;90.55;33.75;;;26.70;58.60;;;;;;6155540;28;83409;-66
2022/06/30 10:19:08;;;;;;;84.00;30.98;;;26.70;58.20;;;;;;6154961;28;83227;-66
2022/06/30 10:22:08;;;;;;;83.50;31.92;;;26.60;57.80;;;;;;6153325;28;85850;-66
2022/06/30 10:25:09;;;;;;;77.53;28.35;;;26.50;57.80;;;;;;6155470;28;82986;-66
2022/06/30 10:28:09;;;;;;;51.22;20.00;;;26.40;58.80;;;;;;6155892;28;83197;-74
2022/06/30 10:31:10;;;;;;;66.78;25.95;;;26.70;63.10;;;;;;6156671;28;84623;-74
2022/06/30 10:34:10;;;;;;;57.30;23.08;;;27.00;62.80;;;;;;6156692;28;83478;-79
2022/06/30 10:37:11;;;;;;;56.08;23.17;;;27.20;62.70;;;;;;6155971;28;83945;-75
2022/06/30 10:40:11;;;;;;;55.70;22.77;;;27.30;62.80;;;;;;6156577;28;82981;-64
2022/06/30 10:43:13;;;;;;;41.05;16.50;;;27.40;62.10;;;;;;6155783;28;83437;-67
2022/06/30 10:46:14;;;;;;;34.42;15.02;;;27.50;63.70;;;;;;6151182;28;84736;-67
2022/06/30 10:49:14;;;;;;;21.92;11.18;;;27.40;61.80;;;;;;6153729;28;83857;-67
2022/06/30 10:52:14;;;;;;;16.33;8.38;;;27.20;59.30;;;;;;6158268;28;83942;-67
2022/06/30 10:55:15;;;;;;;23.02;9.48;;;27.00;58.30;;;;;;6162753;28;82944;-66
2022/06/30 10:58:16;;;;;;;10.65;7.68;;;26.90;57.50;;;;;;6162431;28;80249;-66
2022/06/30 11:01:16;;;;;;;10.38;6.95;;;26.70;57.60;;;;;;6160582;28;80376;-66
2022/06/30 11:04:17;;;;;;;11.50;7.13;;;26.70;57.60;;;;;;6162531;28;80461;-72
2022/06/30 11:07:17;;;;;;;7.85;6.32;;;26.60;57.10;;;;;;6162266;28;80065;-73
2022/06/30 11:10:18;;;;;;;8.65;6.55;;;26.50;57.20;;;;;;6162910;28;80590;-78
2022/06/30 11:13:18;;;;;;;9.15;6.40;;;26.40;55.90;;;;;;6163013;28;80422;-74
2022/06/30 11:16:19;;;;;;;9.52;6.32;;;26.30;55.90;;;;;;6162117;28;80290;-67
2022/06/30 11:19:19;;;;;;;14.15;7.05;;;26.30;56.00;;;;;;6162069;28;80831;-67
2022/06/30 11:22:20;;;;;;;14.82;6.43;;;26.20;56.30;;;;;;6162459;28;80311;-65
2022/06/30 11:28:40;;;;;;;16.27;6.18;;;26.10;56.20;;;;;;6162380;28;81101;-68
2022/06/30 11:31:41;;;;;;;10.50;6.93;;;26.10;56.10;;;;;;6154104;28;81257;-71
2022/06/30 11:34:41;;;;;;;7.47;5.75;;;26.10;56.00;;;;;;6160827;28;82019;-71
2022/06/30 11:37:42;;;;;;;10.55;7.55;;;26.10;56.10;;;;;;6162366;28;80207;-69
2022/06/30 11:40:42;;;;;;;8.38;6.40;;;26.10;56.50;;;;;;6162387;28;80383;-68
2022/06/30 11:43:43;;;;;;;9.15;6.90;;;26.00;56.50;;;;;;6162389;28;80611;-71
2022/06/30 11:46:43;;;;;;;9.98;5.43;;;26.10;56.50;;;;;;6162425;28;80302;-71
2022/06/30 11:49:44;;;;;;;8.32;6.68;;;26.30;62.20;;;;;;6163454;28;80906;-81
2022/06/30 11:52:44;;;;;;;10.88;6.80;;;26.40;60.30;;;;;;6163228;28;80737;-75
2022/06/30 11:55:45;;;;;;;8.48;6.63;;;26.40;58.50;;;;;;6160394;28;80736;-67
2022/06/30 11:58:45;;;;;;;10.68;6.63;;;26.30;57.40;;;;;;6159002;28;82010;-67
2022/06/30 12:01:45;;;;;;;9.90;7.20;;;26.30;56.70;;;;;;6161045;28;80346;-68
2022/06/30 12:04:46;;;;;;;10.93;6.53;;;26.20;56.40;;;;;;6160806;28;81371;-67
2022/06/30 12:07:46;;;;;;;10.20;6.85;;;26.10;56.30;;;;;;6160961;28;80431;-68
2022/06/30 12:10:47;;;;;;;10.00;6.32;;;26.10;56.30;;;;;;6160828;28;82783;-68
2022/06/30 12:13:48;;;;;;;9.93;6.72;;;26.10;55.90;;;;;;6160471;28;80270;-67
2022/06/30 12:16:48;;;;;;;10.60;6.82;;;26.10;56.00;;;;;;6160098;28;81668;-68
2022/06/30 12:19:49;;;;;;;11.27;7.18;;;26.10;56.00;;;;;;6159041;28;80865;-67
2022/06/30 12:22:49;;;;;;;12.13;5.13;;;26.00;55.40;;;;;;6160686;28;80138;-67
2022/06/30 12:25:50;;;;;;;8.82;6.07;;;26.10;58.10;;;;;;6160414;28;80380;-68
2022/06/30 12:28:52;;;;;;;12.65;6.80;;;26.30;58.70;;;;;;6161382;28;80023;-67
2022/06/30 12:31:53;;;;;;;10.50;6.85;;;26.30;59.20;;;;;;6157507;28;80699;-67
2022/06/30 12:34:53;;;;;;;13.52;7.75;;;26.60;60.10;;;;;;6144470;28;80392;-68
2022/06/30 12:37:54;;;;;;;11.13;7.10;;;26.90;60.90;;;;;;6149531;28;81492;-67
2022/06/30 12:40:54;;;;;;;9.57;7.05;;;27.10;60.60;;;;;;6149614;28;81975;-67
2022/06/30 12:43:55;;;;;;;13.10;6.53;;;27.30;60.70;;;;;;6157354;28;86303;-67
2022/06/30 12:46:55;;;;;;;9.50;7.28;;;27.40;60.40;;;;;;6156713;28;80601;-68
2022/06/30 12:49:56;;;;;;;7.22;6.25;;;27.60;61.10;;;;;;6157077;28;80695;-67
2022/06/30 12:52:56;;;;;;;10.55;6.60;;;27.70;61.40;;;;;;6157647;28;81984;-68
2022/06/30 12:55:57;;;;;;;8.65;6.22;;;27.60;59.80;;;;;;6158898;28;80894;-67
2022/06/30 12:58:57;;;;;;;11.60;6.82;;;27.50;59.60;;;;;;6158887;28;83602;-64
2022/06/30 13:01:59;;;;;;;7.88;6.05;;;27.60;59.20;;;;;;6160173;28;80876;-64
2022/06/30 13:05:00;;;;;;;12.60;7.72;;;27.90;59.00;;;;;;6159920;28;80580;-64
2022/06/30 13:08:00;;;;;;;11.73;7.03;;;28.10;58.50;;;;;;6159276;28;80235;-64
2022/06/30 13:11:07;;;;;;;15.82;7.00;;;28.10;59.40;;;;;;6160443;28;80490;-64
2022/06/30 13:14:08;;;;;;;7.95;6.82;;;28.20;58.90;;;;;;6159390;28;80942;-64
2022/06/30 13:17:08;;;;;;;10.05;6.70;;;28.20;58.90;;;;;;6157841;28;81502;-64
2022/06/30 13:20:09;;;;;;;11.32;7.47;;;28.30;59.50;;;;;;6160022;28;81029;-68
2022/06/30 13:23:09;;;;;;;11.73;7.53;;;28.30;58.70;;;;;;6158371;28;81787;-66
2022/06/30 13:26:10;;;;;;;10.73;7.35;;;28.30;59.10;;;;;;6156650;28;80474;-66
2022/06/30 13:29:10;;;;;;;10.63;7.50;;;28.40;59.00;;;;;;6160072;28;80856;-67
2022/06/30 13:32:11;;;;;;;8.35;6.90;;;28.40;59.50;;;;;;6159327;28;81181;-66
2022/06/30 13:35:12;;;;;;;15.07;7.57;;;28.40;59.60;;;;;;6159133;28;81434;-67
2022/06/30 13:38:12;;;;;;;9.38;6.85;;;28.50;59.80;;;;;;6151862;28;81775;-67
2022/06/30 13:41:14;;;;;;;8.80;6.43;;;28.50;59.70;;;;;;6159326;28;80651;-67
2022/06/30 13:44:15;;;;;;;10.27;7.10;;;28.60;59.60;;;;;;6159392;28;81170;-65
2022/06/30 13:47:15;;;;;;;11.65;6.35;;;28.60;59.30;;;;;;6152608;28;83929;-66
2022/06/30 13:50:16;;;;;;;15.02;6.88;;;28.60;59.90;;;;;;6167106;28;81975;-64
2022/06/30 13:53:17;;;;;;;9.60;5.57;;;28.70;59.60;;;;;;6158780;28;80721;-65
2022/06/30 13:56:17;;;;;;;8.95;6.68;;;28.70;59.40;;;;;;6159891;28;80369;-64
2022/06/30 13:59:18;;;;;;;10.40;6.07;;;28.70;59.40;;;;;;6159320;28;80699;-64
2022/06/30 14:02:18;;;;;;;8.05;5.78;;;28.70;58.90;;;;;;6158953;28;80359;-64
2022/06/30 14:05:19;;;;;;;9.85;6.10;;;28.70;59.20;;;;;;6157754;28;81639;-69
2022/06/30 14:08:20;;;;;;;7.97;6.28;;;28.70;59.50;;;;;;6159407;28;83135;-64
2022/06/30 14:11:21;;;;;;;9.13;5.65;;;28.70;59.10;;;;;;6159196;28;80946;-64
2022/06/30 14:14:21;;;;;;;7.22;5.82;;;28.70;59.40;;;;;;6158686;28;80351;-64
2022/06/30 14:17:22;;;;;;;7.35;5.15;;;28.70;59.40;;;;;;6158762;28;80563;-65
2022/06/30 14:20:22;;;;;;;9.90;6.10;;;28.70;59.70;;;;;;6154954;28;81926;-65
2022/06/30 14:23:23;;;;;;;6.85;5.78;;;28.70;57.80;;;;;;6152859;28;81743;-64
2022/06/30 14:26:23;;;;;;;11.98;5.90;;;28.80;58.40;;;;;;6159810;28;80354;-65
2022/06/30 14:29:23;;;;;;;8.00;4.95;;;28.80;58.40;;;;;;6161591;28;80857;-64
2022/06/30 14:32:24;;;;;;;8.88;5.45;;;28.80;58.70;;;;;;6155802;28;81375;-65
2022/06/30 14:35:24;;;;;;;9.48;5.85;;;28.80;59.50;;;;;;6152024;28;80366;-64
2022/06/30 14:38:25;;;;;;;9.98;5.72;;;28.80;59.60;;;;;;6155961;28;81701;-66
2022/06/30 14:44:45;;;;;;;8.40;5.90;;;28.80;59.80;;;;;;6162245;28;80256;-65
2022/06/30 14:47:45;;;;;;;8.38;5.65;;;28.80;59.30;;;;;;6158767;28;82303;-64
2022/06/30 14:50:46;;;;;;;11.13;6.72;;;28.80;59.50;;;;;;6161981;28;81030;-68
2022/06/30 14:53:46;;;;;;;6.63;5.65;;;28.80;60.10;;;;;;6163211;28;80927;-74
2022/06/30 14:56:47;;;;;;;10.43;6.20;;;28.80;60.50;;;;;;6156808;28;80978;-74
2022/06/30 14:59:47;;;;;;;13.57;7.00;;;28.80;59.90;;;;;;6162880;28;80451;-71
2022/06/30 15:02:48;;;;;;;12.85;8.23;;;28.80;60.20;;;;;;6153851;28;81599;-73
2022/06/30 15:05:48;;;;;;;12.10;6.97;;;28.80;58.00;;;;;;6160945;28;80395;-71
2022/06/30 15:08:49;;;;;;;12.10;6.80;;;28.90;56.30;;;;;;6157490;28;81726;-70
2022/06/30 15:11:49;;;;;;;10.52;6.13;;;29.00;56.10;;;;;;6155788;28;81181;-69
2022/06/30 15:14:50;;;;;;;8.18;5.05;;;29.00;55.50;;;;;;6162240;28;80712;-70
2022/06/30 15:17:50;;;;;;;17.75;6.05;;;29.00;54.90;;;;;;6152730;28;82567;-64
2022/06/30 15:24:11;;;;;;;10.50;6.28;;;29.10;56.50;;;;;;6155737;28;85216;-65
2022/06/30 15:27:14;;;;;;;13.13;7.22;;;29.00;57.20;;;;;;6155200;28;80362;-64
2022/06/30 15:30:14;;;;;;;13.65;6.10;;;29.00;58.20;;;;;;6152937;28;80361;-66
2022/06/30 15:33:15;;;;;;;10.63;6.43;;;29.00;57.90;;;;;;6153682;28;80989;-64
2022/06/30 15:36:15;;;;;;;12.52;6.68;;;29.00;58.60;;;;;;6159274;28;80671;-64
2022/06/30 15:39:16;;;;;;;9.63;5.70;;;29.00;59.60;;;;;;6160329;28;81848;-64
2022/06/30 15:42:16;;;;;;;11.68;6.47;;;28.90;59.90;;;;;;6169278;28;80313;-64
2022/06/30 15:45:17;;;;;;;8.77;6.00;;;29.00;60.40;;;;;;6160179;28;81977;-64
2022/06/30 15:48:17;;;;;;;9.70;5.43;;;28.90;59.30;;;;;;6159754;28;81612;-70